sensor_id;sensor_type;location;lat;lon;timestamp;temperature;humidity
42227;DHT22;27892;52.378;13.122;2022-10-15T00:00:29;17.50;70.10
42227;DHT22;27892;52.378;13.122;2022-10-15T00:02:55;17.50;70.50
42227;DHT22;27892;52.378;13.122;2022-10-15T00:05:21;17.50;70.90
42227;DHT22;27892;52.378;13.122;2022-10-15T00:07:47;17.50;71.20
42227;DHT22;27892;52.378;13.122;2022-10-15T00:10:13;17.50;71.50
42227;DHT22;27892;52.378;13.122;2022-10-15T00:12:39;17.50;71.80
42227;DHT22;27892;52.378;13.122;2022-10-15T00:15:05;17.50;72.10
42227;DHT22;27892;52.378;13.122;2022-10-15T00:17:32;17.50;72.20
42227;DHT22;27892;52.378;13.122;2022-10-15T00:19:58;17.60;72.50
42227;DHT22;27892;52.378;13.122;2022-10-15T00:22:24;17.60;72.50
42227;DHT22;27892;52.378;13.122;2022-10-15T00:24:50;17.60;72.50
42227;DHT22;27892;52.378;13.122;2022-10-15T00:27:16;17.60;72.70
42227;DHT22;27892;52.378;13.122;2022-10-15T00:29:41;17.60;73.10
42227;DHT22;27892;52.378;13.122;2022-10-15T00:32:07;17.60;73.40
42227;DHT22;27892;52.378;13.122;2022-10-15T00:34:33;17.70;73.70
42227;DHT22;27892;52.378;13.122;2022-10-15T00:36:58;17.70;73.70
42227;DHT22;27892;52.378;13.122;2022-10-15T00:39:24;17.70;73.90
42227;DHT22;27892;52.378;13.122;2022-10-15T00:41:50;17.70;74.10
42227;DHT22;27892;52.378;13.122;2022-10-15T00:47:18;17.80;74.70
42227;DHT22;27892;52.378;13.122;2022-10-15T00:50:13;17.80;74.70
42227;DHT22;27892;52.378;13.122;2022-10-15T00:53:07;17.80;74.50
42227;DHT22;27892;52.378;13.122;2022-10-15T00:55:37;17.80;75.20
42227;DHT22;27892;52.378;13.122;2022-10-15T00:58:09;17.70;75.30
42227;DHT22;27892;52.378;13.122;2022-10-15T01:00:36;17.70;75.80
42227;DHT22;27892;52.378;13.122;2022-10-15T01:03:02;17.70;75.80
42227;DHT22;27892;52.378;13.122;2022-10-15T01:05:28;17.60;76.10
42227;DHT22;27892;52.378;13.122;2022-10-15T01:07:54;17.70;76.50
42227;DHT22;27892;52.378;13.122;2022-10-15T01:10:20;17.70;76.20
42227;DHT22;27892;52.378;13.122;2022-10-15T01:18:43;17.70;76.80
42227;DHT22;27892;52.378;13.122;2022-10-15T01:24:30;17.70;76.90
42227;DHT22;27892;52.378;13.122;2022-10-15T01:27:21;17.70;77.10
42227;DHT22;27892;52.378;13.122;2022-10-15T01:33:39;17.60;76.80
42227;DHT22;27892;52.378;13.122;2022-10-15T01:39:13;17.60;77.40
42227;DHT22;27892;52.378;13.122;2022-10-15T01:41:43;17.60;77.30
42227;DHT22;27892;52.378;13.122;2022-10-15T01:44:19;17.60;77.50
42227;DHT22;27892;52.378;13.122;2022-10-15T01:46:51;17.60;77.60
42227;DHT22;27892;52.378;13.122;2022-10-15T01:49:21;17.60;77.40
42227;DHT22;27892;52.378;13.122;2022-10-15T01:51:51;17.60;77.40
42227;DHT22;27892;52.378;13.122;2022-10-15T01:54:18;17.60;77.20
42227;DHT22;27892;52.378;13.122;2022-10-15T01:56:47;17.50;77.30
42227;DHT22;27892;52.378;13.122;2022-10-15T01:59:19;17.50;77.90
42227;DHT22;27892;52.378;13.122;2022-10-15T02:01:46;17.50;78.00
42227;DHT22;27892;52.378;13.122;2022-10-15T02:04:18;17.50;77.90
42227;DHT22;27892;52.378;13.122;2022-10-15T02:06:49;17.60;77.80
42227;DHT22;27892;52.378;13.122;2022-10-15T02:15:40;17.60;77.30
42227;DHT22;27892;52.378;13.122;2022-10-15T02:21:14;17.60;77.20
42227;DHT22;27892;52.378;13.122;2022-10-15T02:24:14;17.60;77.20
42227;DHT22;27892;52.378;13.122;2022-10-15T02:26:41;17.60;77.60
42227;DHT22;27892;52.378;13.122;2022-10-15T02:29:10;17.50;77.20
42227;DHT22;27892;52.378;13.122;2022-10-15T02:31:40;17.50;77.40
42227;DHT22;27892;52.378;13.122;2022-10-15T02:34:08;17.50;77.50
42227;DHT22;27892;52.378;13.122;2022-10-15T02:36:37;17.50;77.70
42227;DHT22;27892;52.378;13.122;2022-10-15T02:39:04;17.50;77.40
42227;DHT22;27892;52.378;13.122;2022-10-15T02:41:33;17.50;77.70
42227;DHT22;27892;52.378;13.122;2022-10-15T02:44:00;17.60;77.60
42227;DHT22;27892;52.378;13.122;2022-10-15T02:46:25;17.50;77.10
42227;DHT22;27892;52.378;13.122;2022-10-15T02:48:51;17.50;77.50
42227;DHT22;27892;52.378;13.122;2022-10-15T02:51:16;17.50;77.70
42227;DHT22;27892;52.378;13.122;2022-10-15T02:53:42;17.50;77.50
42227;DHT22;27892;52.378;13.122;2022-10-15T02:56:07;17.50;77.10
42227;DHT22;27892;52.378;13.122;2022-10-15T02:58:33;17.50;77.40
42227;DHT22;27892;52.378;13.122;2022-10-15T03:00:59;17.50;77.20
42227;DHT22;27892;52.378;13.122;2022-10-15T03:03:25;17.50;77.40
42227;DHT22;27892;52.378;13.122;2022-10-15T03:05:51;17.50;77.90
42227;DHT22;27892;52.378;13.122;2022-10-15T03:08:16;17.50;77.60
42227;DHT22;27892;52.378;13.122;2022-10-15T03:10:42;17.50;77.60
42227;DHT22;27892;52.378;13.122;2022-10-15T03:13:09;17.60;77.60
42227;DHT22;27892;52.378;13.122;2022-10-15T03:15:36;17.60;77.30
42227;DHT22;27892;52.378;13.122;2022-10-15T03:18:02;17.60;77.00
42227;DHT22;27892;52.378;13.122;2022-10-15T03:20:27;17.60;77.20
42227;DHT22;27892;52.378;13.122;2022-10-15T03:22:53;17.50;77.10
42227;DHT22;27892;52.378;13.122;2022-10-15T03:25:18;17.50;77.10
42227;DHT22;27892;52.378;13.122;2022-10-15T03:27:44;17.50;77.60
42227;DHT22;27892;52.378;13.122;2022-10-15T03:30:10;17.50;77.40
42227;DHT22;27892;52.378;13.122;2022-10-15T03:32:35;17.50;77.60
42227;DHT22;27892;52.378;13.122;2022-10-15T03:35:01;17.60;77.70
42227;DHT22;27892;52.378;13.122;2022-10-15T03:37:27;17.60;77.20
42227;DHT22;27892;52.378;13.122;2022-10-15T03:39:52;17.60;77.00
42227;DHT22;27892;52.378;13.122;2022-10-15T03:42:18;17.60;76.90
42227;DHT22;27892;52.378;13.122;2022-10-15T03:44:43;17.50;76.80
42227;DHT22;27892;52.378;13.122;2022-10-15T03:47:09;17.50;76.90
42227;DHT22;27892;52.378;13.122;2022-10-15T03:49:34;17.40;76.80
42227;DHT22;27892;52.378;13.122;2022-10-15T03:52:00;17.40;76.90
42227;DHT22;27892;52.378;13.122;2022-10-15T03:54:26;17.40;76.80
42227;DHT22;27892;52.378;13.122;2022-10-15T03:56:51;17.40;77.10
42227;DHT22;27892;52.378;13.122;2022-10-15T03:59:17;17.40;77.20
42227;DHT22;27892;52.378;13.122;2022-10-15T04:01:43;17.30;77.00
42227;DHT22;27892;52.378;13.122;2022-10-15T04:04:10;17.30;77.60
42227;DHT22;27892;52.378;13.122;2022-10-15T04:06:37;17.30;77.80
42227;DHT22;27892;52.378;13.122;2022-10-15T04:09:03;17.30;77.80
42227;DHT22;27892;52.378;13.122;2022-10-15T04:11:28;17.30;77.50
42227;DHT22;27892;52.378;13.122;2022-10-15T04:13:54;17.30;77.60
42227;DHT22;27892;52.378;13.122;2022-10-15T04:16:19;17.20;77.50
42227;DHT22;27892;52.378;13.122;2022-10-15T04:18:45;17.20;77.60
42227;DHT22;27892;52.378;13.122;2022-10-15T04:21:11;17.20;77.00
42227;DHT22;27892;52.378;13.122;2022-10-15T04:23:36;17.20;76.90
42227;DHT22;27892;52.378;13.122;2022-10-15T04:26:02;17.10;77.20
42227;DHT22;27892;52.378;13.122;2022-10-15T04:28:28;17.00;77.20
42227;DHT22;27892;52.378;13.122;2022-10-15T04:31:00;17.00;77.60
42227;DHT22;27892;52.378;13.122;2022-10-15T04:33:26;16.90;77.70
42227;DHT22;27892;52.378;13.122;2022-10-15T04:36:03;16.90;77.70
42227;DHT22;27892;52.378;13.122;2022-10-15T04:38:29;16.90;78.00
42227;DHT22;27892;52.378;13.122;2022-10-15T04:41:03;16.90;78.00
42227;DHT22;27892;52.378;13.122;2022-10-15T04:43:29;16.90;77.50
42227;DHT22;27892;52.378;13.122;2022-10-15T04:45:59;16.80;77.20
42227;DHT22;27892;52.378;13.122;2022-10-15T04:48:27;16.80;77.10
42227;DHT22;27892;52.378;13.122;2022-10-15T04:50:53;16.70;77.10
42227;DHT22;27892;52.378;13.122;2022-10-15T04:53:19;16.70;76.90
42227;DHT22;27892;52.378;13.122;2022-10-15T04:55:45;16.60;76.70
42227;DHT22;27892;52.378;13.122;2022-10-15T04:58:11;16.50;76.70
42227;DHT22;27892;52.378;13.122;2022-10-15T05:00:37;16.50;76.30
42227;DHT22;27892;52.378;13.122;2022-10-15T05:03:05;16.50;76.00
42227;DHT22;27892;52.378;13.122;2022-10-15T05:05:31;16.40;75.80
42227;DHT22;27892;52.378;13.122;2022-10-15T05:08:00;16.40;75.40
42227;DHT22;27892;52.378;13.122;2022-10-15T05:10:26;16.30;75.20
42227;DHT22;27892;52.378;13.122;2022-10-15T05:12:52;16.20;75.00
42227;DHT22;27892;52.378;13.122;2022-10-15T05:15:18;16.20;74.90
42227;DHT22;27892;52.378;13.122;2022-10-15T05:17:43;16.20;75.00
42227;DHT22;27892;52.378;13.122;2022-10-15T05:20:09;16.10;75.10
42227;DHT22;27892;52.378;13.122;2022-10-15T05:22:35;16.00;75.00
42227;DHT22;27892;52.378;13.122;2022-10-15T05:25:00;16.00;74.80
42227;DHT22;27892;52.378;13.122;2022-10-15T05:27:26;16.00;74.70
42227;DHT22;27892;52.378;13.122;2022-10-15T05:29:51;15.90;74.40
42227;DHT22;27892;52.378;13.122;2022-10-15T05:32:17;15.90;74.10
42227;DHT22;27892;52.378;13.122;2022-10-15T05:34:42;15.80;74.20
42227;DHT22;27892;52.378;13.122;2022-10-15T05:37:08;15.70;74.10
42227;DHT22;27892;52.378;13.122;2022-10-15T05:39:33;15.70;74.10
42227;DHT22;27892;52.378;13.122;2022-10-15T05:41:59;15.70;74.10
42227;DHT22;27892;52.378;13.122;2022-10-15T05:44:25;15.60;73.90
42227;DHT22;27892;52.378;13.122;2022-10-15T05:46:50;15.60;74.20
42227;DHT22;27892;52.378;13.122;2022-10-15T05:49:16;15.60;74.50
42227;DHT22;27892;52.378;13.122;2022-10-15T05:51:43;15.60;74.90
42227;DHT22;27892;52.378;13.122;2022-10-15T05:54:09;15.60;75.00
42227;DHT22;27892;52.378;13.122;2022-10-15T05:56:34;15.70;75.10
42227;DHT22;27892;52.378;13.122;2022-10-15T05:59:00;15.70;75.20
42227;DHT22;27892;52.378;13.122;2022-10-15T06:01:27;15.70;75.40
42227;DHT22;27892;52.378;13.122;2022-10-15T06:03:52;15.70;75.90
42227;DHT22;27892;52.378;13.122;2022-10-15T06:06:23;15.80;76.20
42227;DHT22;27892;52.378;13.122;2022-10-15T06:08:51;15.90;76.10
42227;DHT22;27892;52.378;13.122;2022-10-15T06:11:17;15.90;76.20
42227;DHT22;27892;52.378;13.122;2022-10-15T06:13:44;16.00;76.20
42227;DHT22;27892;52.378;13.122;2022-10-15T06:16:10;16.10;76.40
42227;DHT22;27892;52.378;13.122;2022-10-15T06:18:36;16.20;76.70
42227;DHT22;27892;52.378;13.122;2022-10-15T06:21:04;16.20;77.10
42227;DHT22;27892;52.378;13.122;2022-10-15T06:23:30;16.40;77.30
42227;DHT22;27892;52.378;13.122;2022-10-15T06:25:55;16.50;77.20
42227;DHT22;27892;52.378;13.122;2022-10-15T06:28:21;16.60;77.30
42227;DHT22;27892;52.378;13.122;2022-10-15T06:30:47;16.70;77.40
42227;DHT22;27892;52.378;13.122;2022-10-15T06:33:12;16.80;77.10
42227;DHT22;27892;52.378;13.122;2022-10-15T06:35:40;16.90;77.00
42227;DHT22;27892;52.378;13.122;2022-10-15T06:38:06;16.90;76.90
42227;DHT22;27892;52.378;13.122;2022-10-15T06:40:32;17.00;77.60
42227;DHT22;27892;52.378;13.122;2022-10-15T06:43:09;17.10;77.60
42227;DHT22;27892;52.378;13.122;2022-10-15T06:45:39;17.30;77.60
42227;DHT22;27892;52.378;13.122;2022-10-15T06:48:06;17.40;77.00
42227;DHT22;27892;52.378;13.122;2022-10-15T06:50:34;17.60;76.40
42227;DHT22;27892;52.378;13.122;2022-10-15T06:52:59;17.60;76.20
42227;DHT22;27892;52.378;13.122;2022-10-15T06:55:26;17.70;76.20
42227;DHT22;27892;52.378;13.122;2022-10-15T06:57:53;17.80;76.00
42227;DHT22;27892;52.378;13.122;2022-10-15T07:00:19;17.90;76.00
42227;DHT22;27892;52.378;13.122;2022-10-15T07:02:45;18.00;75.90
42227;DHT22;27892;52.378;13.122;2022-10-15T07:05:10;18.10;75.70
42227;DHT22;27892;52.378;13.122;2022-10-15T07:07:36;18.10;75.40
42227;DHT22;27892;52.378;13.122;2022-10-15T07:10:01;18.20;75.50
42227;DHT22;27892;52.378;13.122;2022-10-15T07:12:27;18.30;75.50
42227;DHT22;27892;52.378;13.122;2022-10-15T07:14:53;18.40;75.50
42227;DHT22;27892;52.378;13.122;2022-10-15T07:17:18;18.50;75.30
42227;DHT22;27892;52.378;13.122;2022-10-15T07:19:44;18.50;75.00
42227;DHT22;27892;52.378;13.122;2022-10-15T07:22:10;18.50;74.70
42227;DHT22;27892;52.378;13.122;2022-10-15T07:24:35;18.50;74.80
42227;DHT22;27892;52.378;13.122;2022-10-15T07:27:01;18.40;74.80
42227;DHT22;27892;52.378;13.122;2022-10-15T07:29:27;18.40;75.50
42227;DHT22;27892;52.378;13.122;2022-10-15T07:31:52;18.50;75.80
42227;DHT22;27892;52.378;13.122;2022-10-15T07:34:18;18.60;75.90
42227;DHT22;27892;52.378;13.122;2022-10-15T07:36:43;18.70;75.50
42227;DHT22;27892;52.378;13.122;2022-10-15T07:39:09;18.90;75.30
42227;DHT22;27892;52.378;13.122;2022-10-15T07:41:35;19.00;74.90
42227;DHT22;27892;52.378;13.122;2022-10-15T07:44:01;19.20;74.90
42227;DHT22;27892;52.378;13.122;2022-10-15T07:46:26;19.30;74.90
42227;DHT22;27892;52.378;13.122;2022-10-15T07:48:52;19.50;73.30
42227;DHT22;27892;52.378;13.122;2022-10-15T07:51:17;19.60;73.20
42227;DHT22;27892;52.378;13.122;2022-10-15T07:53:43;19.80;72.90
42227;DHT22;27892;52.378;13.122;2022-10-15T07:56:10;19.90;73.10
42227;DHT22;27892;52.378;13.122;2022-10-15T07:58:37;20.20;72.30
42227;DHT22;27892;52.378;13.122;2022-10-15T08:01:04;20.40;72.20
42227;DHT22;27892;52.378;13.122;2022-10-15T08:03:30;20.70;70.80
42227;DHT22;27892;52.378;13.122;2022-10-15T08:05:59;21.20;70.30
42227;DHT22;27892;52.378;13.122;2022-10-15T08:08:24;22.50;70.00
42227;DHT22;27892;52.378;13.122;2022-10-15T08:10:50;23.80;65.70
42227;DHT22;27892;52.378;13.122;2022-10-15T08:13:15;24.50;63.50
42227;DHT22;27892;52.378;13.122;2022-10-15T08:15:41;24.70;63.10
42227;DHT22;27892;52.378;13.122;2022-10-15T08:18:08;25.10;62.10
42227;DHT22;27892;52.378;13.122;2022-10-15T08:20:38;25.50;59.50
42227;DHT22;27892;52.378;13.122;2022-10-15T08:23:05;25.90;56.80
42227;DHT22;27892;52.378;13.122;2022-10-15T08:25:31;26.40;55.80
42227;DHT22;27892;52.378;13.122;2022-10-15T08:27:57;26.60;56.00
42227;DHT22;27892;52.378;13.122;2022-10-15T08:30:22;26.60;53.30
42227;DHT22;27892;52.378;13.122;2022-10-15T08:32:48;26.00;52.80
42227;DHT22;27892;52.378;13.122;2022-10-15T08:35:13;25.20;53.70
42227;DHT22;27892;52.378;13.122;2022-10-15T08:37:39;24.70;55.30
42227;DHT22;27892;52.378;13.122;2022-10-15T08:40:05;24.50;56.00
42227;DHT22;27892;52.378;13.122;2022-10-15T08:42:37;24.40;57.00
42227;DHT22;27892;52.378;13.122;2022-10-15T08:45:17;24.60;56.50
42227;DHT22;27892;52.378;13.122;2022-10-15T08:47:55;24.50;56.60
42227;DHT22;27892;52.378;13.122;2022-10-15T08:50:42;24.60;56.70
42227;DHT22;27892;52.378;13.122;2022-10-15T08:53:15;24.60;56.30
42227;DHT22;27892;52.378;13.122;2022-10-15T08:55:45;24.40;55.70
42227;DHT22;27892;52.378;13.122;2022-10-15T09:01:26;23.90;56.50
42227;DHT22;27892;52.378;13.122;2022-10-15T09:04:01;23.70;56.90
42227;DHT22;27892;52.378;13.122;2022-10-15T09:06:34;23.50;57.80
42227;DHT22;27892;52.378;13.122;2022-10-15T09:11:55;23.50;58.90
42227;DHT22;27892;52.378;13.122;2022-10-15T09:14:25;23.70;58.90
42227;DHT22;27892;52.378;13.122;2022-10-15T09:16:53;23.70;58.40
42227;DHT22;27892;52.378;13.122;2022-10-15T09:19:21;23.60;58.60
42227;DHT22;27892;52.378;13.122;2022-10-15T09:21:48;23.50;58.70
42227;DHT22;27892;52.378;13.122;2022-10-15T09:24:22;23.40;58.70
42227;DHT22;27892;52.378;13.122;2022-10-15T09:27:07;23.30;59.10
42227;DHT22;27892;52.378;13.122;2022-10-15T09:35:48;23.10;59.50
42227;DHT22;27892;52.378;13.122;2022-10-15T09:43:58;22.90;59.50
42227;DHT22;27892;52.378;13.122;2022-10-15T09:46:26;22.80;59.40
42227;DHT22;27892;52.378;13.122;2022-10-15T09:49:07;22.60;60.20
42227;DHT22;27892;52.378;13.122;2022-10-15T09:57:25;22.40;61.90
42227;DHT22;27892;52.378;13.122;2022-10-15T09:59:56;22.40;61.90
42227;DHT22;27892;52.378;13.122;2022-10-15T10:02:23;22.50;62.30
42227;DHT22;27892;52.378;13.122;2022-10-15T10:04:50;22.70;61.50
42227;DHT22;27892;52.378;13.122;2022-10-15T10:09:55;22.90;60.50
42227;DHT22;27892;52.378;13.122;2022-10-15T10:12:27;22.90;60.60
42227;DHT22;27892;52.378;13.122;2022-10-15T10:15:06;22.70;61.10
42227;DHT22;27892;52.378;13.122;2022-10-15T10:17:34;22.60;60.90
42227;DHT22;27892;52.378;13.122;2022-10-15T10:20:08;22.70;61.60
42227;DHT22;27892;52.378;13.122;2022-10-15T10:22:50;22.90;61.50
42227;DHT22;27892;52.378;13.122;2022-10-15T10:27:58;23.10;60.20
42227;DHT22;27892;52.378;13.122;2022-10-15T10:30:23;23.00;60.50
42227;DHT22;27892;52.378;13.122;2022-10-15T10:32:55;23.00;61.00
42227;DHT22;27892;52.378;13.122;2022-10-15T10:35:25;23.10;60.30
42227;DHT22;27892;52.378;13.122;2022-10-15T10:37:51;23.30;59.90
42227;DHT22;27892;52.378;13.122;2022-10-15T10:40:27;23.30;60.50
42227;DHT22;27892;52.378;13.122;2022-10-15T10:43:17;23.40;59.90
42227;DHT22;27892;52.378;13.122;2022-10-15T10:46:02;23.50;59.20
42227;DHT22;27892;52.378;13.122;2022-10-15T10:48:38;23.40;58.60
42227;DHT22;27892;52.378;13.122;2022-10-15T10:51:07;23.20;59.00
42227;DHT22;27892;52.378;13.122;2022-10-15T10:53:40;23.10;59.30
42227;DHT22;27892;52.378;13.122;2022-10-15T10:56:10;23.00;59.70
42227;DHT22;27892;52.378;13.122;2022-10-15T10:58:38;22.90;60.10
42227;DHT22;27892;52.378;13.122;2022-10-15T11:01:03;23.00;60.10
42227;DHT22;27892;52.378;13.122;2022-10-15T11:03:33;23.00;59.90
42227;DHT22;27892;52.378;13.122;2022-10-15T11:06:21;23.10;59.80
42227;DHT22;27892;52.378;13.122;2022-10-15T11:09:01;23.10;59.90
42227;DHT22;27892;52.378;13.122;2022-10-15T11:11:56;23.20;59.70
42227;DHT22;27892;52.378;13.122;2022-10-15T11:14:42;23.30;59.90
42227;DHT22;27892;52.378;13.122;2022-10-15T11:25:37;24.70;57.50
42227;DHT22;27892;52.378;13.122;2022-10-15T11:28:28;25.10;57.10
42227;DHT22;27892;52.378;13.122;2022-10-15T11:31:22;25.80;54.20
42227;DHT22;27892;52.378;13.122;2022-10-15T11:36:43;27.00;49.50
42227;DHT22;27892;52.378;13.122;2022-10-15T11:39:33;26.80;50.00
42227;DHT22;27892;52.378;13.122;2022-10-15T11:45:06;25.90;49.60
42227;DHT22;27892;52.378;13.122;2022-10-15T11:47:50;25.30;51.20
42227;DHT22;27892;52.378;13.122;2022-10-15T11:50:26;24.80;52.90
42227;DHT22;27892;52.378;13.122;2022-10-15T11:53:25;24.60;53.40
42227;DHT22;27892;52.378;13.122;2022-10-15T11:56:00;24.50;54.10
42227;DHT22;27892;52.378;13.122;2022-10-15T11:58:34;24.50;54.00
42227;DHT22;27892;52.378;13.122;2022-10-15T12:01:05;24.50;54.70
42227;DHT22;27892;52.378;13.122;2022-10-15T12:03:38;24.40;54.60
42227;DHT22;27892;52.378;13.122;2022-10-15T12:06:08;24.30;54.20
42227;DHT22;27892;52.378;13.122;2022-10-15T12:08:37;24.20;55.00
42227;DHT22;27892;52.378;13.122;2022-10-15T12:13:53;24.30;54.60
42227;DHT22;27892;52.378;13.122;2022-10-15T12:16:29;24.20;54.60
42227;DHT22;27892;52.378;13.122;2022-10-15T12:21:36;24.20;54.40
42227;DHT22;27892;52.378;13.122;2022-10-15T12:24:03;24.30;54.70
42227;DHT22;27892;52.378;13.122;2022-10-15T12:26:32;24.20;55.00
42227;DHT22;27892;52.378;13.122;2022-10-15T12:29:18;24.20;54.90
42227;DHT22;27892;52.378;13.122;2022-10-15T12:31:50;24.10;55.60
42227;DHT22;27892;52.378;13.122;2022-10-15T12:34:40;24.00;55.50
42227;DHT22;27892;52.378;13.122;2022-10-15T12:37:16;23.90;55.20
42227;DHT22;27892;52.378;13.122;2022-10-15T12:39:43;23.70;55.20
42227;DHT22;27892;52.378;13.122;2022-10-15T12:42:27;23.60;55.40
42227;DHT22;27892;52.378;13.122;2022-10-15T12:44:54;23.50;55.90
42227;DHT22;27892;52.378;13.122;2022-10-15T12:47:49;23.40;56.00
42227;DHT22;27892;52.378;13.122;2022-10-15T12:50:22;23.30;56.10
42227;DHT22;27892;52.378;13.122;2022-10-15T13:00:37;23.00;57.20
42227;DHT22;27892;52.378;13.122;2022-10-15T13:03:30;23.00;57.10
42227;DHT22;27892;52.378;13.122;2022-10-15T13:11:47;22.90;57.90
42227;DHT22;27892;52.378;13.122;2022-10-15T13:14:36;22.90;58.20
42227;DHT22;27892;52.378;13.122;2022-10-15T13:17:19;22.90;58.70
42227;DHT22;27892;52.378;13.122;2022-10-15T13:19:59;22.90;58.90
42227;DHT22;27892;52.378;13.122;2022-10-15T13:22:31;22.90;58.90
42227;DHT22;27892;52.378;13.122;2022-10-15T13:24:58;22.90;59.00
42227;DHT22;27892;52.378;13.122;2022-10-15T13:27:31;22.80;59.10
42227;DHT22;27892;52.378;13.122;2022-10-15T13:30:15;22.70;59.10
42227;DHT22;27892;52.378;13.122;2022-10-15T13:32:47;22.70;59.50
42227;DHT22;27892;52.378;13.122;2022-10-15T13:35:19;22.70;59.90
42227;DHT22;27892;52.378;13.122;2022-10-15T13:37:47;22.70;59.70
42227;DHT22;27892;52.378;13.122;2022-10-15T13:40:25;22.70;59.50
42227;DHT22;27892;52.378;13.122;2022-10-15T13:43:13;23.20;61.40
42227;DHT22;27892;52.378;13.122;2022-10-15T13:45:48;23.60;59.40
42227;DHT22;27892;52.378;13.122;2022-10-15T13:48:26;23.70;58.30
42227;DHT22;27892;52.378;13.122;2022-10-15T13:50:53;23.70;58.50
42227;DHT22;27892;52.378;13.122;2022-10-15T13:55:50;23.40;57.70
42227;DHT22;27892;52.378;13.122;2022-10-15T13:58:30;23.20;58.10
42227;DHT22;27892;52.378;13.122;2022-10-15T14:01:09;23.30;59.10
42227;DHT22;27892;52.378;13.122;2022-10-15T14:03:44;23.50;58.30
42227;DHT22;27892;52.378;13.122;2022-10-15T14:06:20;23.60;58.30
42227;DHT22;27892;52.378;13.122;2022-10-15T14:08:48;23.70;58.40
42227;DHT22;27892;52.378;13.122;2022-10-15T14:11:14;23.70;58.10
42227;DHT22;27892;52.378;13.122;2022-10-15T14:13:55;23.60;57.70
42227;DHT22;27892;52.378;13.122;2022-10-15T14:16:28;23.60;57.50
42227;DHT22;27892;52.378;13.122;2022-10-15T14:19:18;23.50;57.20
42227;DHT22;27892;52.378;13.122;2022-10-15T14:21:46;23.40;57.10
42227;DHT22;27892;52.378;13.122;2022-10-15T14:24:19;23.20;57.40
42227;DHT22;27892;52.378;13.122;2022-10-15T14:26:46;23.20;57.90
42227;DHT22;27892;52.378;13.122;2022-10-15T14:29:39;23.20;58.30
42227;DHT22;27892;52.378;13.122;2022-10-15T14:32:29;23.20;58.00
42227;DHT22;27892;52.378;13.122;2022-10-15T14:35:00;23.00;58.10
42227;DHT22;27892;52.378;13.122;2022-10-15T14:40:22;22.70;58.30
42227;DHT22;27892;52.378;13.122;2022-10-15T14:42:59;22.60;58.80
42227;DHT22;27892;52.378;13.122;2022-10-15T14:45:29;22.50;59.00
42227;DHT22;27892;52.378;13.122;2022-10-15T14:48:02;22.40;59.70
42227;DHT22;27892;52.378;13.122;2022-10-15T14:50:34;22.30;60.10
42227;DHT22;27892;52.378;13.122;2022-10-15T14:53:05;22.20;60.50
42227;DHT22;27892;52.378;13.122;2022-10-15T14:55:34;22.30;61.00
42227;DHT22;27892;52.378;13.122;2022-10-15T14:58:10;22.30;61.10
42227;DHT22;27892;52.378;13.122;2022-10-15T15:00:46;22.20;61.30
42227;DHT22;27892;52.378;13.122;2022-10-15T15:03:16;22.20;61.50
42227;DHT22;27892;52.378;13.122;2022-10-15T15:05:50;22.20;61.50
42227;DHT22;27892;52.378;13.122;2022-10-15T15:08:17;22.10;61.70
42227;DHT22;27892;52.378;13.122;2022-10-15T15:10:43;22.10;62.00
42227;DHT22;27892;52.378;13.122;2022-10-15T15:13:15;22.10;62.10
42227;DHT22;27892;52.378;13.122;2022-10-15T15:15:41;22.00;62.10
42227;DHT22;27892;52.378;13.122;2022-10-15T15:18:10;21.90;62.30
42227;DHT22;27892;52.378;13.122;2022-10-15T15:20:36;21.90;62.50
42227;DHT22;27892;52.378;13.122;2022-10-15T15:23:02;21.80;62.50
42227;DHT22;27892;52.378;13.122;2022-10-15T15:25:30;21.70;62.70
42227;DHT22;27892;52.378;13.122;2022-10-15T15:27:58;21.60;63.00
42227;DHT22;27892;52.378;13.122;2022-10-15T15:30:27;21.60;63.30
42227;DHT22;27892;52.378;13.122;2022-10-15T15:32:53;21.50;63.50
42227;DHT22;27892;52.378;13.122;2022-10-15T15:35:25;21.50;63.90
42227;DHT22;27892;52.378;13.122;2022-10-15T15:37:52;21.40;63.90
42227;DHT22;27892;52.378;13.122;2022-10-15T15:40:18;21.30;63.90
42227;DHT22;27892;52.378;13.122;2022-10-15T15:42:44;21.30;64.20
42227;DHT22;27892;52.378;13.122;2022-10-15T15:45:17;21.30;64.30
42227;DHT22;27892;52.378;13.122;2022-10-15T15:47:43;21.20;64.30
42227;DHT22;27892;52.378;13.122;2022-10-15T15:50:08;21.20;64.40
42227;DHT22;27892;52.378;13.122;2022-10-15T15:52:34;21.10;64.40
42227;DHT22;27892;52.378;13.122;2022-10-15T15:54:59;21.00;64.40
42227;DHT22;27892;52.378;13.122;2022-10-15T15:57:25;20.90;64.80
42227;DHT22;27892;52.378;13.122;2022-10-15T15:59:50;20.80;65.10
42227;DHT22;27892;52.378;13.122;2022-10-15T16:02:16;20.70;65.50
42227;DHT22;27892;52.378;13.122;2022-10-15T16:04:41;20.60;65.60
42227;DHT22;27892;52.378;13.122;2022-10-15T16:07:09;20.50;65.90
42227;DHT22;27892;52.378;13.122;2022-10-15T16:09:35;20.40;66.20
42227;DHT22;27892;52.378;13.122;2022-10-15T16:12:01;20.30;66.30
42227;DHT22;27892;52.378;13.122;2022-10-15T16:14:26;20.10;66.50
42227;DHT22;27892;52.378;13.122;2022-10-15T16:16:52;20.00;66.80
42227;DHT22;27892;52.378;13.122;2022-10-15T16:19:18;19.90;67.00
42227;DHT22;27892;52.378;13.122;2022-10-15T16:21:43;19.80;67.10
42227;DHT22;27892;52.378;13.122;2022-10-15T16:24:09;19.70;67.40
42227;DHT22;27892;52.378;13.122;2022-10-15T16:26:34;19.60;67.40
42227;DHT22;27892;52.378;13.122;2022-10-15T16:29:00;19.50;67.60
42227;DHT22;27892;52.378;13.122;2022-10-15T16:31:27;19.40;68.10
42227;DHT22;27892;52.378;13.122;2022-10-15T16:33:57;19.40;68.20
42227;DHT22;27892;52.378;13.122;2022-10-15T16:36:23;19.20;68.40
42227;DHT22;27892;52.378;13.122;2022-10-15T16:38:49;19.20;68.40
42227;DHT22;27892;52.378;13.122;2022-10-15T16:41:15;19.10;69.50
42227;DHT22;27892;52.378;13.122;2022-10-15T16:43:43;19.10;69.00
42227;DHT22;27892;52.378;13.122;2022-10-15T16:46:09;19.00;68.90
42227;DHT22;27892;52.378;13.122;2022-10-15T16:48:35;19.00;69.10
42227;DHT22;27892;52.378;13.122;2022-10-15T16:51:05;18.90;69.50
42227;DHT22;27892;52.378;13.122;2022-10-15T16:53:31;18.80;69.50
42227;DHT22;27892;52.378;13.122;2022-10-15T16:56:16;18.80;69.70
42227;DHT22;27892;52.378;13.122;2022-10-15T16:58:42;18.70;70.00
42227;DHT22;27892;52.378;13.122;2022-10-15T17:01:11;18.70;69.90
42227;DHT22;27892;52.378;13.122;2022-10-15T17:03:39;18.60;70.20
42227;DHT22;27892;52.378;13.122;2022-10-15T17:06:14;18.50;70.00